sensor_id;sensor_type;location;lat;lon;timestamp;pressure;altitude;pressure_sealevel;temperature;humidity
74915;BME280;63475;45.140;-75.616;2023-12-22T00:00:36;102661.22;;;-7.84;69.91
74915;BME280;63475;45.140;-75.616;2023-12-22T00:02:38;102664.63;;;-7.85;70.23
74915;BME280;63475;45.140;-75.616;2023-12-22T00:04:41;102661.16;;;-7.86;69.71
74915;BME280;63475;45.140;-75.616;2023-12-22T00:06:44;102661.84;;;-7.90;70.26
74915;BME280;63475;45.140;-75.616;2023-12-22T00:08:50;102666.22;;;-7.89;70.27
74915;BME280;63475;45.140;-75.616;2023-12-22T00:10:52;102657.38;;;-7.94;70.36
74915;BME280;63475;45.140;-75.616;2023-12-22T00:12:56;102651.31;;;-7.94;70.37
74915;BME280;63475;45.140;-75.616;2023-12-22T00:14:58;102659.84;;;-7.97;70.39
74915;BME280;63475;45.140;-75.616;2023-12-22T00:17:01;102651.91;;;-8.01;71.09
74915;BME280;63475;45.140;-75.616;2023-12-22T00:19:04;102651.97;;;-8.00;70.89
74915;BME280;63475;45.140;-75.616;2023-12-22T00:21:13;102649.25;;;-8.03;70.67
74915;BME280;63475;45.140;-75.616;2023-12-22T00:23:15;102651.75;;;-8.06;70.68
74915;BME280;63475;45.140;-75.616;2023-12-22T00:25:18;102644.69;;;-8.10;70.50
74915;BME280;63475;45.140;-75.616;2023-12-22T00:27:20;102639.28;;;-8.16;70.61
74915;BME280;63475;45.140;-75.616;2023-12-22T00:29:23;102642.94;;;-8.11;71.00
74915;BME280;63475;45.140;-75.616;2023-12-22T00:31:25;102642.94;;;-8.11;70.88
74915;BME280;63475;45.140;-75.616;2023-12-22T00:33:28;102636.63;;;-8.18;70.76
74915;BME280;63475;45.140;-75.616;2023-12-22T00:35:31;102630.63;;;-8.17;71.55
74915;BME280;63475;45.140;-75.616;2023-12-22T00:37:33;102627.88;;;-8.21;71.20
74915;BME280;63475;45.140;-75.616;2023-12-22T00:39:36;102629.50;;;-8.23;71.07
74915;BME280;63475;45.140;-75.616;2023-12-22T00:41:39;102615.47;;;-8.30;71.61
74915;BME280;63475;45.140;-75.616;2023-12-22T00:43:42;102618.81;;;-8.32;71.31
74915;BME280;63475;45.140;-75.616;2023-12-22T00:45:44;102619.72;;;-8.32;71.01
74915;BME280;63475;45.140;-75.616;2023-12-22T00:47:47;102624.69;;;-8.36;70.98
74915;BME280;63475;45.140;-75.616;2023-12-22T00:49:51;102632.47;;;-8.36;70.76
74915;BME280;63475;45.140;-75.616;2023-12-22T00:51:53;102628.81;;;-8.42;71.32
74915;BME280;63475;45.140;-75.616;2023-12-22T00:53:58;102633.97;;;-8.42;71.27
74915;BME280;63475;45.140;-75.616;2023-12-22T00:56:01;102628.69;;;-8.45;72.22
74915;BME280;63475;45.140;-75.616;2023-12-22T00:58:04;102628.50;;;-8.49;71.84
74915;BME280;63475;45.140;-75.616;2023-12-22T01:00:08;102621.53;;;-8.52;71.38
74915;BME280;63475;45.140;-75.616;2023-12-22T01:02:15;102628.50;;;-8.49;71.94
74915;BME280;63475;45.140;-75.616;2023-12-22T01:04:18;102636.22;;;-8.51;72.21
74915;BME280;63475;45.140;-75.616;2023-12-22T01:06:21;102619.69;;;-8.54;72.78
74915;BME280;63475;45.140;-75.616;2023-12-22T01:08:28;102618.69;;;-8.58;72.13
74915;BME280;63475;45.140;-75.616;2023-12-22T01:10:31;102611.69;;;-8.60;72.34
74915;BME280;63475;45.140;-75.616;2023-12-22T01:12:34;102608.22;;;-8.61;73.18
74915;BME280;63475;45.140;-75.616;2023-12-22T01:14:37;102616.94;;;-8.59;73.87
74915;BME280;63475;45.140;-75.616;2023-12-22T01:16:40;102617.88;;;-8.57;74.04
74915;BME280;63475;45.140;-75.616;2023-12-22T01:18:42;102613.47;;;-8.59;74.88
74915;BME280;63475;45.140;-75.616;2023-12-22T01:20:46;102603.88;;;-8.62;73.82
74915;BME280;63475;45.140;-75.616;2023-12-22T01:22:50;102615.16;;;-8.60;74.22
74915;BME280;63475;45.140;-75.616;2023-12-22T01:24:53;102618.00;;;-8.54;76.35
74915;BME280;63475;45.140;-75.616;2023-12-22T01:26:56;102598.75;;;-8.60;76.41
74915;BME280;63475;45.140;-75.616;2023-12-22T01:28:59;102614.53;;;-8.54;76.49
74915;BME280;63475;45.140;-75.616;2023-12-22T01:31:04;102616.44;;;-8.49;75.58
74915;BME280;63475;45.140;-75.616;2023-12-22T01:33:08;102618.13;;;-8.51;74.92
74915;BME280;63475;45.140;-75.616;2023-12-22T01:35:11;102608.53;;;-8.53;76.46
74915;BME280;63475;45.140;-75.616;2023-12-22T01:37:14;102612.09;;;-8.50;76.59
74915;BME280;63475;45.140;-75.616;2023-12-22T01:39:18;102616.56;;;-8.46;77.57
74915;BME280;63475;45.140;-75.616;2023-12-22T01:41:20;102607.81;;;-8.49;75.81
74915;BME280;63475;45.140;-75.616;2023-12-22T01:43:23;102603.63;;;-8.46;76.03
74915;BME280;63475;45.140;-75.616;2023-12-22T01:45:26;102606.28;;;-8.44;75.48
74915;BME280;63475;45.140;-75.616;2023-12-22T01:47:42;102603.69;;;-8.44;75.32
74915;BME280;63475;45.140;-75.616;2023-12-22T01:49:45;102592.47;;;-8.45;75.89
74915;BME280;63475;45.140;-75.616;2023-12-22T01:51:49;102604.38;;;-8.48;75.27
74915;BME280;63475;45.140;-75.616;2023-12-22T01:53:55;102612.34;;;-8.44;74.44
74915;BME280;63475;45.140;-75.616;2023-12-22T01:56:00;102603.63;;;-8.46;73.63
74915;BME280;63475;45.140;-75.616;2023-12-22T01:58:04;102602.75;;;-8.46;74.64
74915;BME280;63475;45.140;-75.616;2023-12-22T02:00:08;102602.69;;;-8.48;75.18
74915;BME280;63475;45.140;-75.616;2023-12-22T02:02:11;102600.97;;;-8.47;74.65
74915;BME280;63475;45.140;-75.616;2023-12-22T02:04:14;102601.88;;;-8.47;74.74
74915;BME280;63475;45.140;-75.616;2023-12-22T02:06:17;102591.50;;;-8.47;75.10
74915;BME280;63475;45.140;-75.616;2023-12-22T02:08:21;102595.75;;;-8.49;74.96
74915;BME280;63475;45.140;-75.616;2023-12-22T02:10:25;102598.41;;;-8.47;74.52
74915;BME280;63475;45.140;-75.616;2023-12-22T02:12:28;102590.63;;;-8.47;74.89
74915;BME280;63475;45.140;-75.616;2023-12-22T02:14:31;102595.66;;;-8.52;75.25
74915;BME280;63475;45.140;-75.616;2023-12-22T02:16:46;102592.34;;;-8.48;76.87
74915;BME280;63475;45.140;-75.616;2023-12-22T02:18:55;102601.88;;;-8.47;76.52
74915;BME280;63475;45.140;-75.616;2023-12-22T02:20:58;102601.88;;;-8.47;78.14
74915;BME280;63475;45.140;-75.616;2023-12-22T02:23:01;102595.88;;;-8.46;77.41
74915;BME280;63475;45.140;-75.616;2023-12-22T02:25:04;102587.16;;;-8.48;78.16
74915;BME280;63475;45.140;-75.616;2023-12-22T02:29:30;102583.00;;;-8.44;78.32
74915;BME280;63475;45.140;-75.616;2023-12-22T02:31:40;102590.00;;;-8.42;77.66
74915;BME280;63475;45.140;-75.616;2023-12-22T02:33:48;102584.00;;;-8.41;77.59
74915;BME280;63475;45.140;-75.616;2023-12-22T02:35:52;102584.88;;;-8.40;78.26
74915;BME280;63475;45.140;-75.616;2023-12-22T02:37:58;102585.75;;;-8.40;78.16
74915;BME280;63475;45.140;-75.616;2023-12-22T02:40:03;102583.06;;;-8.43;78.23
74915;BME280;63475;45.140;-75.616;2023-12-22T02:42:07;102584.81;;;-8.42;78.25
74915;BME280;63475;45.140;-75.616;2023-12-22T02:44:09;102587.28;;;-8.45;77.52
74915;BME280;63475;45.140;-75.616;2023-12-22T02:46:15;102583.94;;;-8.42;77.73
74915;BME280;63475;45.140;-75.616;2023-12-22T02:48:18;102581.16;;;-8.47;78.48
74915;BME280;63475;45.140;-75.616;2023-12-22T02:50:20;102584.56;;;-8.48;78.50
74915;BME280;63475;45.140;-75.616;2023-12-22T02:52:23;102586.34;;;-8.47;78.74
74915;BME280;63475;45.140;-75.616;2023-12-22T02:54:26;102578.31;;;-8.54;77.08
74915;BME280;63475;45.140;-75.616;2023-12-22T02:56:31;102586.00;;;-8.56;74.25
74915;BME280;63475;45.140;-75.616;2023-12-22T02:58:34;102587.53;;;-8.61;73.15
74915;BME280;63475;45.140;-75.616;2023-12-22T03:00:37;102579.66;;;-8.64;72.47
74915;BME280;63475;45.140;-75.616;2023-12-22T03:02:40;102595.03;;;-8.67;72.21
74915;BME280;63475;45.140;-75.616;2023-12-22T03:04:42;102590.56;;;-8.71;72.60
74915;BME280;63475;45.140;-75.616;2023-12-22T03:06:45;102591.84;;;-8.82;72.38
74915;BME280;63475;45.140;-75.616;2023-12-22T03:08:47;102590.91;;;-8.84;74.20
74915;BME280;63475;45.140;-75.616;2023-12-22T03:10:50;102592.63;;;-8.85;73.20
74915;BME280;63475;45.140;-75.616;2023-12-22T03:12:53;102593.38;;;-8.87;72.84
74915;BME280;63475;45.140;-75.616;2023-12-22T03:14:55;102596.59;;;-8.93;72.99
74915;BME280;63475;45.140;-75.616;2023-12-22T03:16:58;102590.31;;;-8.99;72.90
74915;BME280;63475;45.140;-75.616;2023-12-22T03:19:00;102587.34;;;-9.09;72.08
74915;BME280;63475;45.140;-75.616;2023-12-22T03:21:03;102587.28;;;-9.10;72.10
74915;BME280;63475;45.140;-75.616;2023-12-22T03:23:06;102585.44;;;-9.13;72.16
74915;BME280;63475;45.140;-75.616;2023-12-22T03:25:09;102596.53;;;-9.15;72.18
74915;BME280;63475;45.140;-75.616;2023-12-22T03:27:11;102581.47;;;-9.25;72.08
74915;BME280;63475;45.140;-75.616;2023-12-22T03:29:18;102590.19;;;-9.23;72.31
74915;BME280;63475;45.140;-75.616;2023-12-22T03:31:21;102590.81;;;-9.29;72.77
74915;BME280;63475;45.140;-75.616;2023-12-22T03:33:23;102577.50;;;-9.38;72.76
74915;BME280;63475;45.140;-75.616;2023-12-22T03:35:26;102586.13;;;-9.37;72.69
74915;BME280;63475;45.140;-75.616;2023-12-22T03:37:29;102583.31;;;-9.44;72.34
74915;BME280;63475;45.140;-75.616;2023-12-22T03:39:31;102581.53;;;-9.45;73.24
74915;BME280;63475;45.140;-75.616;2023-12-22T03:41:34;102583.19;;;-9.47;73.81
74915;BME280;63475;45.140;-75.616;2023-12-22T03:43:36;102584.81;;;-9.49;75.13
74915;BME280;63475;45.140;-75.616;2023-12-22T03:45:39;102589.22;;;-9.46;74.72
74915;BME280;63475;45.140;-75.616;2023-12-22T03:47:41;102582.16;;;-9.50;74.38
74915;BME280;63475;45.140;-75.616;2023-12-22T03:49:44;102584.59;;;-9.53;74.02
74915;BME280;63475;45.140;-75.616;2023-12-22T03:51:46;102581.88;;;-9.56;74.03
74915;BME280;63475;45.140;-75.616;2023-12-22T03:53:49;102582.69;;;-9.57;74.72
74915;BME280;63475;45.140;-75.616;2023-12-22T03:55:54;102581.63;;;-9.62;75.12
74915;BME280;63475;45.140;-75.616;2023-12-22T03:57:56;102580.72;;;-9.63;74.57
74915;BME280;63475;45.140;-75.616;2023-12-22T03:59:59;102581.59;;;-9.64;74.32
74915;BME280;63475;45.140;-75.616;2023-12-22T04:02:02;102571.06;;;-9.68;75.94
74915;BME280;63475;45.140;-75.616;2023-12-22T04:04:05;102574.22;;;-9.55;78.18
74915;BME280;63475;45.140;-75.616;2023-12-22T04:06:07;102572.50;;;-9.54;77.48
74915;BME280;63475;45.140;-75.616;2023-12-22T04:08:10;102559.47;;;-9.57;77.31
74915;BME280;63475;45.140;-75.616;2023-12-22T04:10:16;102560.34;;;-9.57;78.61
74915;BME280;63475;45.140;-75.616;2023-12-22T04:12:19;102564.00;;;-9.52;79.65
74915;BME280;63475;45.140;-75.616;2023-12-22T04:14:22;102559.59;;;-9.54;79.72
74915;BME280;63475;45.140;-75.616;2023-12-22T04:16:25;102554.28;;;-9.57;77.59
74915;BME280;63475;45.140;-75.616;2023-12-22T04:18:27;102559.59;;;-9.54;76.05
74915;BME280;63475;45.140;-75.616;2023-12-22T04:20:31;102548.25;;;-9.58;76.39
74915;BME280;63475;45.140;-75.616;2023-12-22T04:22:34;102542.34;;;-9.55;77.32
74915;BME280;63475;45.140;-75.616;2023-12-22T04:24:36;102542.53;;;-9.51;79.09
74915;BME280;63475;45.140;-75.616;2023-12-22T04:26:39;102547.69;;;-9.51;79.97
74915;BME280;63475;45.140;-75.616;2023-12-22T04:28:41;102540.91;;;-9.49;79.03
74915;BME280;63475;45.140;-75.616;2023-12-22T04:30:44;102547.00;;;-9.47;78.68
74915;BME280;63475;45.140;-75.616;2023-12-22T04:32:46;102542.59;;;-9.49;77.64
74915;BME280;63475;45.140;-75.616;2023-12-22T04:34:49;102542.66;;;-9.48;78.91
74915;BME280;63475;45.140;-75.616;2023-12-22T04:36:51;102549.78;;;-9.42;79.33
74915;BME280;63475;45.140;-75.616;2023-12-22T04:38:54;102539.47;;;-9.42;78.44
74915;BME280;63475;45.140;-75.616;2023-12-22T04:40:56;102533.41;;;-9.43;78.02
74915;BME280;63475;45.140;-75.616;2023-12-22T04:42:59;102540.22;;;-9.45;77.11
74915;BME280;63475;45.140;-75.616;2023-12-22T04:45:02;102535.03;;;-9.45;74.99
74915;BME280;63475;45.140;-75.616;2023-12-22T04:47:04;102529.81;;;-9.46;75.10
74915;BME280;63475;45.140;-75.616;2023-12-22T04:49:07;102521.94;;;-9.49;75.60
74915;BME280;63475;45.140;-75.616;2023-12-22T04:51:10;102518.53;;;-9.48;75.25
74915;BME280;63475;45.140;-75.616;2023-12-22T04:53:12;102525.47;;;-9.47;75.13
74915;BME280;63475;45.140;-75.616;2023-12-22T04:55:15;102518.34;;;-9.53;75.51
74915;BME280;63475;45.140;-75.616;2023-12-22T04:57:19;102521.81;;;-9.52;75.13
74915;BME280;63475;45.140;-75.616;2023-12-22T04:59:21;102509.03;;;-9.49;77.33
74915;BME280;63475;45.140;-75.616;2023-12-22T05:01:24;102511.66;;;-9.48;78.17
74915;BME280;63475;45.140;-75.616;2023-12-22T05:03:26;102513.38;;;-9.48;77.00
74915;BME280;63475;45.140;-75.616;2023-12-22T05:05:29;102505.56;;;-9.50;76.63
74915;BME280;63475;45.140;-75.616;2023-12-22T05:07:32;102513.25;;;-9.51;76.47
74915;BME280;63475;45.140;-75.616;2023-12-22T05:09:35;102499.50;;;-9.50;76.33
74915;BME280;63475;45.140;-75.616;2023-12-22T05:11:37;102513.25;;;-9.51;76.56
74915;BME280;63475;45.140;-75.616;2023-12-22T05:13:40;102517.66;;;-9.49;75.78
74915;BME280;63475;45.140;-75.616;2023-12-22T05:15:45;102500.38;;;-9.50;77.05
74915;BME280;63475;45.140;-75.616;2023-12-22T05:17:47;102506.50;;;-9.48;77.38
74915;BME280;63475;45.140;-75.616;2023-12-22T05:19:50;102496.09;;;-9.49;78.82
74915;BME280;63475;45.140;-75.616;2023-12-22T05:21:53;102510.03;;;-9.46;79.80
74915;BME280;63475;45.140;-75.616;2023-12-22T05:23:58;102509.84;;;-9.50;79.92
74915;BME280;63475;45.140;-75.616;2023-12-22T05:26:01;102504.94;;;-9.44;79.73
74915;BME280;63475;45.140;-75.616;2023-12-22T05:28:04;102503.97;;;-9.46;80.50
74915;BME280;63475;45.140;-75.616;2023-12-22T05:30:07;102498.81;;;-9.46;80.41
74915;BME280;63475;45.140;-75.616;2023-12-22T05:32:11;102501.63;;;-9.40;80.21
74915;BME280;63475;45.140;-75.616;2023-12-22T05:34:14;102492.84;;;-9.45;79.31
74915;BME280;63475;45.140;-75.616;2023-12-22T05:36:17;102496.47;;;-9.40;78.87
74915;BME280;63475;45.140;-75.616;2023-12-22T05:38:19;102484.00;;;-9.50;78.99
74915;BME280;63475;45.140;-75.616;2023-12-22T05:40:23;102486.78;;;-9.46;78.18
74915;BME280;63475;45.140;-75.616;2023-12-22T05:42:25;102501.75;;;-9.37;78.58
74915;BME280;63475;45.140;-75.616;2023-12-22T05:44:28;102500.00;;;-9.38;78.59
74915;BME280;63475;45.140;-75.616;2023-12-22T05:46:38;102493.06;;;-9.39;77.65
74915;BME280;63475;45.140;-75.616;2023-12-22T05:48:41;102499.16;;;-9.37;78.92
74915;BME280;63475;45.140;-75.616;2023-12-22T05:50:44;102496.47;;;-9.40;79.47
74915;BME280;63475;45.140;-75.616;2023-12-22T05:52:47;102492.25;;;-9.38;78.08
74915;BME280;63475;45.140;-75.616;2023-12-22T05:54:50;102491.34;;;-9.38;79.01
74915;BME280;63475;45.140;-75.616;2023-12-22T05:56:53;102482.66;;;-9.40;79.00
74915;BME280;63475;45.140;-75.616;2023-12-22T05:58:59;102490.59;;;-9.36;78.53
74915;BME280;63475;45.140;-75.616;2023-12-22T06:01:02;102485.31;;;-9.39;79.61
74915;BME280;63475;45.140;-75.616;2023-12-22T06:03:05;102485.50;;;-9.34;79.92
74915;BME280;63475;45.140;-75.616;2023-12-22T06:05:09;102487.88;;;-9.39;79.84
74915;BME280;63475;45.140;-75.616;2023-12-22T06:07:11;102487.97;;;-9.37;77.09
74915;BME280;63475;45.140;-75.616;2023-12-22T06:09:14;102479.25;;;-9.39;76.03
74915;BME280;63475;45.140;-75.616;2023-12-22T06:11:17;102495.63;;;-9.39;75.25
74915;BME280;63475;45.140;-75.616;2023-12-22T06:13:21;102482.63;;;-9.42;75.83
74915;BME280;63475;45.140;-75.616;2023-12-22T06:15:24;102480.75;;;-9.46;76.37
74915;BME280;63475;45.140;-75.616;2023-12-22T06:17:26;102485.03;;;-9.47;76.06
74915;BME280;63475;45.140;-75.616;2023-12-22T06:19:29;102478.97;;;-9.47;77.27
74915;BME280;63475;45.140;-75.616;2023-12-22T06:21:33;102478.09;;;-9.48;76.82
74915;BME280;63475;45.140;-75.616;2023-12-22T06:23:35;102482.50;;;-9.45;78.51
74915;BME280;63475;45.140;-75.616;2023-12-22T06:25:38;102472.78;;;-9.51;79.49
74915;BME280;63475;45.140;-75.616;2023-12-22T06:27:41;102480.88;;;-9.43;79.26
74915;BME280;63475;45.140;-75.616;2023-12-22T06:29:44;102473.75;;;-9.49;79.24
74915;BME280;63475;45.140;-75.616;2023-12-22T06:31:47;102483.38;;;-9.45;77.29
74915;BME280;63475;45.140;-75.616;2023-12-22T06:33:53;102478.97;;;-9.47;76.75
74915;BME280;63475;45.140;-75.616;2023-12-22T06:35:56;102469.19;;;-9.54;76.38
74915;BME280;63475;45.140;-75.616;2023-12-22T06:37:59;102469.41;;;-9.50;76.03
74915;BME280;63475;45.140;-75.616;2023-12-22T06:40:06;102472.88;;;-9.49;75.07
74915;BME280;63475;45.140;-75.616;2023-12-22T06:42:09;102468.31;;;-9.55;74.44
74915;BME280;63475;45.140;-75.616;2023-12-22T06:44:14;102462.13;;;-9.58;74.55
74915;BME280;63475;45.140;-75.616;2023-12-22T06:46:21;102459.56;;;-9.58;75.03
74915;BME280;63475;45.140;-75.616;2023-12-22T06:48:31;102455.97;;;-9.62;74.70
74915;BME280;63475;45.140;-75.616;2023-12-22T06:50:35;102456.75;;;-9.64;75.38
74915;BME280;63475;45.140;-75.616;2023-12-22T06:52:39;102461.19;;;-9.60;75.83
74915;BME280;63475;45.140;-75.616;2023-12-22T06:54:41;102462.06;;;-9.60;77.88
74915;BME280;63475;45.140;-75.616;2023-12-22T06:56:48;102458.31;;;-9.68;78.68
74915;BME280;63475;45.140;-75.616;2023-12-22T06:58:53;102458.38;;;-9.66;78.39
74915;BME280;63475;45.140;-75.616;2023-12-22T07:00:56;102466.28;;;-9.62;78.15
74915;BME280;63475;45.140;-75.616;2023-12-22T07:03:00;102462.84;;;-9.62;78.22
74915;BME280;63475;45.140;-75.616;2023-12-22T07:07:28;102477.41;;;-9.64;75.65
74915;BME280;63475;45.140;-75.616;2023-12-22T07:09:32;102475.72;;;-9.64;76.02
74915;BME280;63475;45.140;-75.616;2023-12-22T07:11:36;102492.84;;;-9.66;76.32
74915;BME280;63475;45.140;-75.616;2023-12-22T07:13:39;102474.56;;;-9.70;77.73
74915;BME280;63475;45.140;-75.616;2023-12-22T07:15:44;102483.38;;;-9.65;78.02
74915;BME280;63475;45.140;-75.616;2023-12-22T07:17:48;102477.97;;;-9.71;77.01
74915;BME280;63475;45.140;-75.616;2023-12-22T07:19:51;102474.63;;;-9.69;77.21
74915;BME280;63475;45.140;-75.616;2023-12-22T07:21:54;102479.72;;;-9.70;76.88
74915;BME280;63475;45.140;-75.616;2023-12-22T07:23:57;102476.19;;;-9.72;75.85
74915;BME280;63475;45.140;-75.616;2023-12-22T07:26:03;102478.84;;;-9.71;77.02
74915;BME280;63475;45.140;-75.616;2023-12-22T07:28:06;102469.34;;;-9.72;78.26
74915;BME280;63475;45.140;-75.616;2023-12-22T07:30:10;102478.03;;;-9.70;78.11
74915;BME280;63475;45.140;-75.616;2023-12-22T07:32:14;102479.72;;;-9.70;76.95
74915;BME280;63475;45.140;-75.616;2023-12-22T07:34:17;102477.97;;;-9.71;77.92
74915;BME280;63475;45.140;-75.616;2023-12-22T07:36:23;102469.19;;;-9.75;77.51
74915;BME280;63475;45.140;-75.616;2023-12-22T07:38:26;102480.53;;;-9.71;77.79
74915;BME280;63475;45.140;-75.616;2023-12-22T07:40:29;102480.53;;;-9.71;79.09
74915;BME280;63475;45.140;-75.616;2023-12-22T07:42:34;102479.72;;;-9.70;78.93
74915;BME280;63475;45.140;-75.616;2023-12-22T07:44:37;102478.78;;;-9.72;79.98
74915;BME280;63475;45.140;-75.616;2023-12-22T07:46:39;102480.41;;;-9.74;80.01
74915;BME280;63475;45.140;-75.616;2023-12-22T07:48:44;102477.97;;;-9.71;79.78
74915;BME280;63475;45.140;-75.616;2023-12-22T07:50:48;102475.44;;;-9.70;79.31
74915;BME280;63475;45.140;-75.616;2023-12-22T07:52:52;102466.88;;;-9.69;79.63
74915;BME280;63475;45.140;-75.616;2023-12-22T07:54:55;102467.84;;;-9.67;80.24
74915;BME280;63475;45.140;-75.616;2023-12-22T07:56:58;102468.72;;;-9.66;80.37
74915;BME280;63475;45.140;-75.616;2023-12-22T07:59:01;102461.84;;;-9.66;79.80
74915;BME280;63475;45.140;-75.616;2023-12-22T08:01:23;102466.13;;;-9.66;79.69
74915;BME280;63475;45.140;-75.616;2023-12-22T08:03:26;102466.06;;;-9.68;79.44
74915;BME280;63475;45.140;-75.616;2023-12-22T08:05:30;102456.56;;;-9.69;78.86
74915;BME280;63475;45.140;-75.616;2023-12-22T08:07:32;102467.78;;;-9.68;78.42
74915;BME280;63475;45.140;-75.616;2023-12-22T08:09:36;102454.72;;;-9.71;77.82
74915;BME280;63475;45.140;-75.616;2023-12-22T08:11:38;102461.59;;;-9.72;78.05
74915;BME280;63475;45.140;-75.616;2023-12-22T08:13:41;102459.75;;;-9.74;77.64
74915;BME280;63475;45.140;-75.616;2023-12-22T08:15:44;102452.78;;;-9.77;77.58
74915;BME280;63475;45.140;-75.616;2023-12-22T08:17:50;102452.09;;;-9.73;78.13
74915;BME280;63475;45.140;-75.616;2023-12-22T08:19:55;102445.09;;;-9.75;77.96
74915;BME280;63475;45.140;-75.616;2023-12-22T08:22:10;102455.34;;;-9.77;77.14
74915;BME280;63475;45.140;-75.616;2023-12-22T08:24:16;102463.91;;;-9.78;75.63
74915;BME280;63475;45.140;-75.616;2023-12-22T08:26:24;102451.75;;;-9.81;75.17
74915;BME280;63475;45.140;-75.616;2023-12-22T08:28:26;102445.53;;;-9.86;76.34
74915;BME280;63475;45.140;-75.616;2023-12-22T08:30:29;102450.72;;;-9.86;76.30
74915;BME280;63475;45.140;-75.616;2023-12-22T08:32:32;102437.78;;;-9.87;76.74
74915;BME280;63475;45.140;-75.616;2023-12-22T08:34:34;102442.88;;;-9.89;75.64
74915;BME280;63475;45.140;-75.616;2023-12-22T08:36:37;102440.09;;;-9.93;75.15
74915;BME280;63475;45.140;-75.616;2023-12-22T08:38:41;102440.97;;;-9.93;75.23
74915;BME280;63475;45.140;-75.616;2023-12-22T08:40:44;102446.94;;;-9.94;75.50
74915;BME280;63475;45.140;-75.616;2023-12-22T08:42:47;102445.94;;;-9.97;74.90
74915;BME280;63475;45.140;-75.616;2023-12-22T08:44:50;102443.22;;;-10.00;75.58
74915;BME280;63475;45.140;-75.616;2023-12-22T08:46:53;102443.22;;;-10.00;74.89
74915;BME280;63475;45.140;-75.616;2023-12-22T08:48:55;102437.09;;;-10.02;75.30
74915;BME280;63475;45.140;-75.616;2023-12-22T08:50:58;102446.63;;;-10.01;75.04
74915;BME280;63475;45.140;-75.616;2023-12-22T08:53:00;102442.19;;;-10.04;74.27
74915;BME280;63475;45.140;-75.616;2023-12-22T08:55:03;102434.28;;;-10.08;74.13
74915;BME280;63475;45.140;-75.616;2023-12-22T08:57:07;102442.06;;;-10.07;74.39
74915;BME280;63475;45.140;-75.616;2023-12-22T08:59:12;102436.69;;;-10.13;74.58
74915;BME280;63475;45.140;-75.616;2023-12-22T09:01:15;102448.75;;;-10.12;74.41
74915;BME280;63475;45.140;-75.616;2023-12-22T09:03:18;102443.47;;;-10.15;74.99
74915;BME280;63475;45.140;-75.616;2023-12-22T09:05:20;102442.44;;;-10.19;74.90
74915;BME280;63475;45.140;-75.616;2023-12-22T09:07:24;102444.22;;;-10.18;74.76
74915;BME280;63475;45.140;-75.616;2023-12-22T09:09:26;102438.16;;;-10.18;75.62
74915;BME280;63475;45.140;-75.616;2023-12-22T09:11:29;102439.81;;;-10.20;75.24
74915;BME280;63475;45.140;-75.616;2023-12-22T09:13:32;102436.28;;;-10.22;74.16
74915;BME280;63475;45.140;-75.616;2023-12-22T09:15:35;102442.31;;;-10.22;74.81
74915;BME280;63475;45.140;-75.616;2023-12-22T09:17:38;102440.47;;;-10.24;75.15
74915;BME280;63475;45.140;-75.616;2023-12-22T09:19:43;102437.81;;;-10.26;75.74
74915;BME280;63475;45.140;-75.616;2023-12-22T09:21:46;102434.38;;;-10.26;75.48
74915;BME280;63475;45.140;-75.616;2023-12-22T09:23:49;102442.25;;;-10.23;75.23
74915;BME280;63475;45.140;-75.616;2023-12-22T09:25:52;102443.06;;;-10.24;74.93
74915;BME280;63475;45.140;-75.616;2023-12-22T09:27:55;102438.72;;;-10.25;74.95
74915;BME280;63475;45.140;-75.616;2023-12-22T09:29:58;102431.72;;;-10.28;75.58
74915;BME280;63475;45.140;-75.616;2023-12-22T09:32:00;102423.84;;;-10.31;75.28
74915;BME280;63475;45.140;-75.616;2023-12-22T09:34:03;102418.69;;;-10.31;75.22
74915;BME280;63475;45.140;-75.616;2023-12-22T09:36:06;102422.03;;;-10.33;75.07
74915;BME280;63475;45.140;-75.616;2023-12-22T09:38:10;102429.06;;;-10.29;74.82
74915;BME280;63475;45.140;-75.616;2023-12-22T09:40:14;102423.66;;;-10.35;75.15
74915;BME280;63475;45.140;-75.616;2023-12-22T09:42:19;102418.66;;;-10.32;74.60
74915;BME280;63475;45.140;-75.616;2023-12-22T09:44:22;102420.28;;;-10.34;75.23
74915;BME280;63475;45.140;-75.616;2023-12-22T09:46:27;102423.66;;;-10.35;75.06
74915;BME280;63475;45.140;-75.616;2023-12-22T09:48:33;102420.22;;;-10.36;75.59
74915;BME280;63475;45.140;-75.616;2023-12-22T09:50:38;102417.63;;;-10.36;74.93
74915;BME280;63475;45.140;-75.616;2023-12-22T09:52:42;102408.94;;;-10.38;75.36
74915;BME280;63475;45.140;-75.616;2023-12-22T09:54:48;102414.97;;;-10.37;76.29
74915;BME280;63475;45.140;-75.616;2023-12-22T09:56:53;102412.41;;;-10.37;76.35
74915;BME280;63475;45.140;-75.616;2023-12-22T09:58:56;102412.41;;;-10.37;75.82
74915;BME280;63475;45.140;-75.616;2023-12-22T10:00:59;102409.69;;;-10.40;75.68
74915;BME280;63475;45.140;-75.616;2023-12-22T10:03:06;102409.09;;;-10.35;76.14
74915;BME280;63475;45.140;-75.616;2023-12-22T10:05:09;102398.50;;;-10.41;76.40
74915;BME280;63475;45.140;-75.616;2023-12-22T10:07:20;102421.91;;;-10.36;76.20
74915;BME280;63475;45.140;-75.616;2023-12-22T10:09:24;102417.63;;;-10.36;76.94
74915;BME280;63475;45.140;-75.616;2023-12-22T10:11:29;102415.88;;;-10.37;76.60
74915;BME280;63475;45.140;-75.616;2023-12-22T10:13:33;102417.63;;;-10.36;76.48
74915;BME280;63475;45.140;-75.616;2023-12-22T10:15:39;102412.47;;;-10.36;75.63
74915;BME280;63475;45.140;-75.616;2023-12-22T10:17:45;102416.88;;;-10.33;75.97
74915;BME280;63475;45.140;-75.616;2023-12-22T10:19:48;102420.28;;;-10.34;76.40
74915;BME280;63475;45.140;-75.616;2023-12-22T10:21:50;102414.25;;;-10.35;76.44
74915;BME280;63475;45.140;-75.616;2023-12-22T10:23:53;102421.16;;;-10.34;75.79
74915;BME280;63475;45.140;-75.616;2023-12-22T10:25:57;102419.47;;;-10.33;75.24
74915;BME280;63475;45.140;-75.616;2023-12-22T10:28:00;102409.81;;;-10.37;75.32
74915;BME280;63475;45.140;-75.616;2023-12-22T10:30:04;102416.75;;;-10.36;75.86
74915;BME280;63475;45.140;-75.616;2023-12-22T10:32:07;102412.34;;;-10.39;75.47